Time;durP1;ratioP1;P1;durP2;ratioP2;P2;SDS_P1;SDS_P2;PMS_P1;PMS_P2;Temp;Humidity;BMP_temperature;BMP_pressure;BME280_temperature;BME280_humidity;BME280_pressure;Samples;Min_cycle;Max_cycle;Signal;HPM_P1;HPM_P2
2021/12/06 00:01:23;;;;;;;7.68;4.68;;;2.00;99.90;;;0.97;100.00;96434.94;5024094;28;20029;-81
2021/12/06 00:04:05;;;;;;;9.18;5.72;;;1.90;99.90;;;1.02;100.00;96448.66;5027250;28;20536;-81
2021/12/06 00:06:33;;;;;;;;;;;1.90;99.90;;;1.12;100.00;96452.00;5039907;28;20052;-81
2021/12/06 00:09:02;;;;;;;7.90;5.32;;;1.90;99.90;;;1.15;100.00;96462.34;5019781;28;19931;-81
2021/12/06 00:11:27;;;;;;;9.57;5.50;;;2.00;99.90;;;1.11;100.00;96456.34;5041347;28;20032;-81
2021/12/06 00:13:53;;;;;;;8.15;5.30;;;2.00;99.90;;;1.13;100.00;96466.69;5021591;28;20033;-81
2021/12/06 00:16:22;;;;;;;7.82;5.50;;;2.00;99.90;;;1.04;100.00;96441.75;5043311;28;20029;-81
2021/12/06 00:18:51;;;;;;;8.38;5.50;;;2.00;99.90;;;1.16;100.00;96463.22;5031998;28;20033;-81
2021/12/06 00:21:18;;;;;;;9.35;5.78;;;2.00;99.90;;;1.21;100.00;96472.63;5002166;28;20034;-81
2021/12/06 00:23:45;;;;;;;8.45;5.35;;;2.00;99.90;;;1.14;100.00;96466.66;5006152;28;20025;-81
2021/12/06 00:26:11;;;;;;;9.57;6.03;;;2.00;99.90;;;1.07;100.00;96459.84;5010761;28;20056;-81
2021/12/06 00:28:43;;;;;;;11.30;6.00;;;2.00;99.90;;;1.01;100.00;96466.91;5000599;28;20045;-81
2021/12/06 00:31:11;;;;;;;11.30;6.32;;;2.00;99.90;;;1.03;100.00;96463.38;5005397;28;20033;-81
2021/12/06 00:33:39;;;;;;;10.00;5.68;;;2.00;99.90;;;1.06;100.00;96476.34;5011513;28;20510;-81
2021/12/06 00:36:15;;;;;;;10.00;5.90;;;2.00;99.90;;;1.08;100.00;96473.72;5021588;28;20036;-81
2021/12/06 00:38:44;;;;;;;9.95;5.45;;;2.00;99.90;;;1.08;100.00;96471.13;5002478;28;20164;-81
2021/12/06 00:41:11;;;;;;;11.13;5.97;;;1.90;99.90;;;0.99;100.00;96466.03;5019634;28;20025;-81
2021/12/06 00:43:37;;;;;;;12.07;6.10;;;2.00;99.90;;;0.95;100.00;96479.06;4990676;28;20033;-81
2021/12/06 00:46:03;;;;;;;10.00;6.05;;;1.90;99.90;;;0.93;100.00;96473.06;4990272;28;20381;-81
2021/12/06 00:48:29;;;;;;;9.95;5.32;;;2.00;99.90;;;1.00;100.00;96485.94;5002895;28;20379;-81
2021/12/06 00:50:54;;;;;;;8.65;5.55;;;1.90;99.90;;;1.02;100.00;96485.03;5005310;28;20032;-81
2021/12/06 00:53:20;;;;;;;7.82;5.20;;;1.90;99.90;;;0.93;100.00;96465.25;5006984;28;20070;-81
2021/12/06 00:55:46;;;;;;;11.57;6.30;;;2.00;99.90;;;1.11;100.00;96492.72;5022721;28;20026;-81
2021/12/06 00:58:12;;;;;;;9.55;5.80;;;1.90;99.90;;;1.07;100.00;96492.75;5024913;28;20037;-81
2021/12/06 01:00:46;;;;;;;8.88;5.78;;;2.00;99.90;;;1.03;100.00;96493.69;5006310;28;21066;-81
2021/12/06 01:03:26;;;;;;;9.27;5.65;;;2.00;99.90;;;1.01;100.00;96492.84;5013645;28;20034;-81
2021/12/06 01:05:52;;;;;;;11.05;6.60;;;2.00;99.90;;;0.90;100.00;96483.47;5001322;28;20025;-81
2021/12/06 01:08:19;;;;;;;9.02;5.70;;;1.90;99.90;;;1.01;100.00;96498.06;4998102;28;20030;-81
2021/12/06 01:10:46;;;;;;;10.07;6.05;;;1.90;99.90;;;0.81;100.00;96468.03;4988580;28;20045;-81
2021/12/06 01:13:12;;;;;;;9.55;6.10;;;1.90;99.90;;;1.00;100.00;96506.72;5006425;28;20037;-81
2021/12/06 01:15:39;;;;;;;11.75;6.50;;;1.90;99.90;;;0.97;100.00;96511.94;5031024;28;20093;-81
2021/12/06 01:18:08;;;;;;;7.85;5.30;;;1.90;99.90;;;0.91;100.00;96510.28;5016621;28;20029;-81
2021/12/06 01:20:43;;;;;;;8.82;5.35;;;1.90;99.90;;;0.97;100.00;96520.59;5003674;28;20033;-81
2021/12/06 01:23:13;;;;;;;10.50;6.30;;;1.90;99.90;;;0.89;100.00;96510.28;5005919;28;20118;-81
2021/12/06 01:29:04;;;;;;;9.77;6.45;;;1.80;99.90;;;0.81;100.00;96509.56;4895030;29;20480;-81
2021/12/06 01:39:48;;;;;;;8.85;5.72;;;1.80;99.90;;;0.90;100.00;96547.53;5013978;28;20064;-81
2021/12/06 01:42:14;;;;;;;18.60;6.45;;;1.80;99.90;;;0.88;100.00;96559.63;5027006;28;20064;-81
2021/12/06 01:44:45;;;;;;;8.48;6.25;;;1.80;99.90;;;0.87;100.00;96558.78;5031579;28;20033;-81
2021/12/06 01:47:24;;;;;;;10.52;7.57;;;1.80;99.90;;;0.89;100.00;96561.38;5001108;28;20591;-81
2021/12/06 01:49:56;;;;;;;13.13;7.97;;;1.80;99.90;;;0.73;100.00;96547.72;5018590;28;20029;-81
2021/12/06 01:52:35;;;;;;;12.15;7.72;;;1.80;99.90;;;0.84;100.00;96565.75;5016026;28;20501;-81
2021/12/06 01:55:04;;;;;;;13.40;7.53;;;1.80;99.90;;;0.83;100.00;96558.84;5027059;28;20274;-81
2021/12/06 01:57:31;;;;;;;13.50;7.68;;;1.80;99.90;;;0.81;100.00;96555.38;5025986;28;20033;-81
2021/12/06 01:59:57;;;;;;;13.60;8.45;;;1.80;99.90;;;0.90;100.00;96566.53;5037603;28;20043;-81
2021/12/06 02:02:26;;;;;;;15.10;9.70;;;1.80;99.90;;;0.83;100.00;96558.84;5020667;28;20072;-81
2021/12/06 02:04:52;;;;;;;10.38;7.18;;;1.80;99.90;;;0.93;100.00;96563.91;5025237;28;20540;-81
2021/12/06 02:07:22;;;;;;;8.82;6.80;;;1.80;99.90;;;1.01;100.00;96561.22;5019309;28;20022;-81
2021/12/06 02:09:54;;;;;;;10.07;7.15;;;1.90;99.90;;;0.98;100.00;96550.84;5019907;28;20029;-81
2021/12/06 02:12:21;;;;;;;12.70;7.35;;;1.90;99.90;;;1.10;100.00;96560.25;5010120;28;20014;-81
2021/12/06 02:15:12;;;;;;;11.80;7.50;;;1.90;99.90;;;1.14;100.00;96560.16;5014376;28;20021;-81
2021/12/06 02:17:40;;;;;;;10.87;7.73;;;2.00;99.90;;;1.18;100.00;96568.78;5028564;28;20082;-81
2021/12/06 02:20:20;;;;;;;11.35;8.35;;;2.00;99.90;;;1.07;100.00;96565.47;5026657;28;20287;-81
2021/12/06 02:22:46;;;;;;;12.38;7.72;;;2.00;99.90;;;1.09;100.00;96582.72;5009152;28;20041;-81
2021/12/06 02:25:16;;;;;;;11.95;8.73;;;2.00;99.90;;;0.95;100.00;96569.94;5013711;28;20430;-81
2021/12/06 02:27:44;;;;;;;11.65;8.10;;;2.00;99.90;;;1.02;100.00;96586.28;4997656;28;20136;-81
2021/12/06 02:30:11;;;;;;;12.50;8.85;;;2.00;99.90;;;1.00;100.00;96597.56;4999995;28;20029;-81
2021/12/06 02:32:38;;;;;;;13.45;9.00;;;1.90;99.90;;;0.88;100.00;96586.47;5010134;28;20193;-81
2021/12/06 02:35:11;;;;;;;10.90;8.15;;;1.90;99.90;;;0.90;100.00;96589.06;5024220;28;20053;-81
2021/12/06 02:37:36;;;;;;;12.73;7.82;;;1.90;99.90;;;0.85;100.00;96591.69;5012035;28;20128;-81
2021/12/06 02:40:20;;;;;;;14.13;8.57;;;1.80;99.90;;;0.90;100.00;96596.84;4990605;28;20542;-81
2021/12/06 02:42:46;;;;;;;10.13;7.47;;;1.80;99.90;;;0.85;100.00;96589.09;5010936;28;20327;-81
2021/12/06 02:45:20;;;;;;;8.68;6.43;;;1.80;99.90;;;0.86;100.00;96600.31;5012919;28;20033;-81
2021/12/06 02:47:52;;;;;;;11.50;6.53;;;1.80;99.90;;;0.86;100.00;96587.34;5012881;28;20029;-81
2021/12/06 02:50:21;;;;;;;;;;;1.80;99.90;;;0.92;100.00;96598.53;4997709;28;20029;-81
2021/12/06 02:52:47;;;;;;;10.15;5.80;;;1.80;99.90;;;0.86;100.00;96583.03;5009806;28;19917;-81
2021/12/06 02:55:36;;;;;;;8.88;5.63;;;1.80;99.90;;;0.77;100.00;96570.13;5012759;28;20095;-81
2021/12/06 02:58:16;;;;;;;11.05;6.97;;;1.80;99.90;;;0.96;100.00;96601.94;4999972;28;20029;-81
2021/12/06 03:00:49;;;;;;;10.50;6.80;;;1.80;99.90;;;0.93;100.00;96595.06;5016328;28;20029;-81
2021/12/06 03:03:16;;;;;;;10.20;7.30;;;1.80;99.90;;;1.02;100.00;96614.84;5018099;28;20175;-80
2021/12/06 03:05:42;;;;;;;9.57;6.80;;;1.90;99.90;;;1.04;100.00;96617.44;5027905;28;20116;-81
2021/12/06 03:08:08;;;;;;;9.90;6.68;;;1.90;99.90;;;1.04;100.00;96613.13;4990897;28;20551;-81
2021/12/06 03:10:34;;;;;;;8.52;5.90;;;1.90;99.90;;;0.97;100.00;96603.69;5007846;28;20269;-81
2021/12/06 03:13:00;;;;;;;11.02;7.72;;;1.90;99.90;;;0.89;100.00;96611.53;5003119;28;20118;-81
2021/12/06 03:15:26;;;;;;;13.77;8.05;;;1.90;99.90;;;0.68;100.00;96597.09;5010188;28;20034;-81
2021/12/06 03:17:52;;;;;;;12.32;8.10;;;1.80;99.90;;;0.63;100.00;96597.97;5011703;28;20504;-80
2021/12/06 03:20:17;;;;;;;11.68;7.32;;;1.70;99.90;;;0.62;100.00;96606.66;5028468;28;20143;-81
2021/12/06 03:22:44;;;;;;;16.15;8.57;;;1.70;99.90;;;0.67;100.00;96610.06;5020773;28;20088;-81
2021/12/06 03:25:13;;;;;;;10.70;7.32;;;1.70;99.90;;;0.74;100.00;96620.38;5005520;28;20036;-81
2021/12/06 03:27:39;;;;;;;9.70;7.47;;;1.70;99.90;;;0.80;100.00;96619.44;5044833;23;20118;-44
2021/12/06 03:30:09;;;;;;;10.85;7.40;;;1.70;99.90;;;0.83;100.00;96627.19;5010050;28;20072;-41
2021/12/06 03:32:35;;;;;;;10.73;7.25;;;1.70;99.90;;;0.86;100.00;96634.06;5020402;28;20046;-44
2021/12/06 03:35:01;;;;;;;12.48;8.23;;;1.80;99.90;;;0.86;100.00;96634.06;5003968;28;20471;-45
2021/12/06 03:37:27;;;;;;;12.05;7.90;;;1.80;99.90;;;0.95;100.00;96647.84;5002677;28;20044;-43
2021/12/06 03:39:53;;;;;;;11.48;8.52;;;1.80;99.90;;;0.89;100.00;96649.63;5016177;28;20033;-45
2021/12/06 03:42:22;;;;;;;15.35;9.65;;;1.90;99.90;;;0.86;100.00;96652.25;4999966;28;20025;-41
2021/12/06 03:44:49;;;;;;;16.38;9.48;;;1.80;99.90;;;0.87;100.00;96656.56;5006098;28;20068;-47
2021/12/06 03:47:22;;;;;;;12.10;8.48;;;1.70;99.90;;;0.97;100.00;96658.22;5004459;28;20022;-46
2021/12/06 03:49:49;;;;;;;14.35;8.48;;;1.80;99.90;;;1.09;100.00;96663.22;5001144;28;20321;-43
2021/12/06 03:52:15;;;;;;;15.48;9.80;;;2.00;99.90;;;1.17;100.00;96663.16;4999241;28;20053;-45
2021/12/06 03:54:42;;;;;;;14.98;9.90;;;2.00;99.90;;;1.14;100.00;96658.84;5003419;28;20113;-46
2021/12/06 03:57:08;;;;;;;14.48;9.38;;;2.00;99.90;;;1.17;100.00;96670.97;5004637;28;20025;-45
2021/12/06 03:59:34;;;;;;;14.57;10.10;;;2.10;99.90;;;1.21;100.00;96664.84;4999829;28;20578;-42
2021/12/06 04:02:00;;;;;;;15.18;10.15;;;2.10;99.90;;;1.25;100.00;96676.06;5004029;28;20030;-45
2021/12/06 04:04:27;;;;;;;12.60;9.68;;;2.10;99.90;;;1.30;100.00;96679.47;5001598;28;20033;-44
2021/12/06 04:06:56;;;;;;;11.85;9.55;;;2.10;99.90;;;1.33;100.00;96677.69;5000899;28;20084;-46
2021/12/06 04:09:22;;;;;;;14.32;9.93;;;2.20;99.90;;;1.40;100.00;96677.59;4992780;28;20175;-48
2021/12/06 04:11:49;;;;;;;17.10;11.55;;;2.20;99.90;;;1.30;100.00;96677.72;4996741;28;20269;-47
2021/12/06 04:14:15;;;;;;;18.05;12.10;;;2.20;99.90;;;1.24;100.00;96677.81;5000097;28;20025;-46
2021/12/06 04:16:42;;;;;;;17.38;12.95;;;2.20;99.90;;;1.20;100.00;96686.47;4995751;28;20468;-46
2021/12/06 04:19:08;;;;;;;18.00;12.95;;;2.20;99.90;;;1.18;100.00;96693.44;4999257;28;20037;-48
2021/12/06 04:21:34;;;;;;;15.05;11.75;;;2.10;99.90;;;1.22;100.00;96686.47;4992209;28;20034;-46
2021/12/06 04:24:00;;;;;;;17.52;12.93;;;2.10;99.90;;;1.30;100.00;96693.31;4994455;28;20041;-47
2021/12/06 04:26:26;;;;;;;21.05;12.40;;;2.10;99.90;;;1.26;100.00;96694.22;4993447;28;20041;-48
2021/12/06 04:28:59;;;;;;;24.00;16.02;;;2.20;99.90;;;1.27;100.00;96701.13;4996117;28;20708;-46
2021/12/06 04:31:32;;;;;;;23.35;14.63;;;2.20;99.90;;;1.27;100.00;96695.94;4996960;28;20030;-46
2021/12/06 04:33:59;;;;;;;21.65;15.10;;;2.20;99.90;;;1.31;100.00;96699.34;4995826;28;20126;-49
2021/12/06 04:36:26;;;;;;;22.70;15.18;;;2.20;99.90;;;1.33;100.00;96703.66;4994517;28;20049;-42
2021/12/06 04:38:53;;;;;;;24.70;15.80;;;2.20;99.90;;;1.27;100.00;96692.47;4995312;28;20097;-44
2021/12/06 04:41:18;;;;;;;23.13;14.43;;;2.20;99.90;;;1.29;100.00;96683.81;4993753;28;20041;-47
2021/12/06 04:43:45;;;;;;;22.05;14.40;;;2.20;99.90;;;1.38;100.00;96708.78;4992929;28;20034;-48
2021/12/06 04:46:11;;;;;;;21.38;14.50;;;2.20;99.90;;;1.34;100.00;96713.16;4997757;28;22000;-46
2021/12/06 04:48:37;;;;;;;26.88;15.57;;;2.20;99.90;;;1.23;100.00;96709.00;4986889;28;20540;-46
2021/12/06 04:51:04;;;;;;;25.48;16.42;;;2.20;99.90;;;1.21;100.00;96727.19;4999078;28;20041;-48
2021/12/06 04:53:36;;;;;;;25.13;16.73;;;2.20;99.90;;;1.22;100.00;96725.44;4988254;28;20049;-42
2021/12/06 04:56:31;;;;;;;24.15;15.55;;;2.10;99.90;;;1.26;100.00;96730.59;5006285;28;20030;-45
2021/12/06 04:59:14;;;;;;;23.35;14.55;;;2.10;99.90;;;1.28;100.00;96731.44;5004046;28;20045;-46
2021/12/06 05:01:40;;;;;;;;;;;2.10;99.90;;;1.32;100.00;96738.31;5000605;28;20034;-44
2021/12/06 05:04:12;;;;;;;23.00;14.35;;;2.20;99.90;;;1.32;100.00;96737.47;4998553;28;19917;-47
2021/12/06 05:06:43;;;;;;;23.00;14.43;;;2.20;99.90;;;1.32;100.00;96740.06;5003113;28;20053;-47
2021/12/06 05:09:28;;;;;;;23.30;14.70;;;2.20;99.90;;;1.33;100.00;96739.19;4999341;28;20375;-45
2021/12/06 05:11:54;;;;;;;23.45;14.60;;;2.20;99.90;;;1.32;100.00;96748.69;4988207;28;20147;-46
2021/12/06 05:14:21;;;;;;;22.83;14.43;;;2.20;99.90;;;1.18;100.00;96732.41;4996039;28;20104;-43
2021/12/06 05:16:47;;;;;;;24.02;15.20;;;2.20;99.90;;;1.31;100.00;96751.31;4992555;28;20095;-46
2021/12/06 05:19:13;;;;;;;26.17;14.65;;;2.20;99.90;;;1.37;100.00;96763.41;5000778;28;20037;-46
2021/12/06 05:21:39;;;;;;;27.20;16.75;;;2.20;99.90;;;1.33;100.00;96767.75;4999619;28;20030;-45
2021/12/06 05:24:07;;;;;;;26.58;16.25;;;2.20;99.90;;;1.27;100.00;96768.66;5000665;28;20033;-46
2021/12/06 05:26:33;;;;;;;25.75;16.40;;;2.20;99.90;;;1.23;100.00;96761.78;5000239;28;20037;-42
2021/12/06 05:29:01;;;;;;;23.88;15.88;;;2.20;99.90;;;1.40;100.00;96794.53;5003428;28;20565;-48
2021/12/06 05:31:29;;;;;;;24.75;16.77;;;2.20;99.90;;;1.37;100.00;96803.22;5004264;28;20029;-46
2021/12/06 05:34:01;;;;;;;25.23;15.73;;;2.30;99.90;;;1.40;100.00;96799.72;5011917;28;20034;-43
2021/12/06 05:36:26;;;;;;;23.35;15.95;;;2.30;99.90;;;1.49;100.00;96790.09;5008318;28;20553;-47
2021/12/06 05:38:54;;;;;;;26.35;16.40;;;2.30;99.90;;;1.47;100.00;96793.56;5009315;28;20050;-47
2021/12/06 05:41:21;;;;;;;23.05;16.10;;;2.30;99.90;;;1.42;100.00;96795.34;5009928;28;20033;-45
2021/12/06 05:43:47;;;;;;;21.20;15.05;;;2.40;99.90;;;1.37;100.00;96803.22;5010162;28;20408;-46
2021/12/06 05:46:14;;;;;;;20.65;14.60;;;2.30;99.90;;;1.48;100.00;96808.31;5011075;28;20108;-47
2021/12/06 05:48:40;;;;;;;24.58;14.90;;;2.30;99.90;;;1.51;100.00;96811.72;5007716;28;20053;-45
2021/12/06 05:51:06;;;;;;;22.95;14.77;;;2.30;99.90;;;1.44;100.00;96801.44;5010700;28;20133;-45
2021/12/06 05:53:33;;;;;;;25.00;14.75;;;2.40;99.90;;;1.48;100.00;96816.94;5006646;28;20213;-47
2021/12/06 05:56:00;;;;;;;22.67;14.88;;;2.40;99.90;;;1.41;100.00;96822.25;5010940;28;20030;-44
2021/12/06 05:58:26;;;;;;;21.63;15.18;;;2.40;99.90;;;1.29;100.00;96808.50;5014742;28;20040;-47
2021/12/06 06:00:54;;;;;;;22.40;15.18;;;2.30;99.90;;;1.27;100.00;96820.63;5014087;28;20093;-45
2021/12/06 06:03:20;;;;;;;22.08;14.52;;;2.20;99.90;;;1.27;100.00;96827.56;5009055;28;22126;-48
2021/12/06 06:05:46;;;;;;;22.10;14.57;;;2.20;99.90;;;1.33;100.00;96832.72;5009665;28;20029;-46
2021/12/06 06:08:12;;;;;;;20.83;14.20;;;2.20;99.90;;;1.40;100.00;96842.16;5013368;28;20034;-47
2021/12/06 06:10:38;;;;;;;21.20;14.50;;;2.20;99.90;;;1.45;100.00;96847.31;5011671;28;20347;-43
2021/12/06 06:13:06;;;;;;;21.42;13.82;;;2.30;99.90;;;1.47;100.00;96851.63;5009942;28;20127;-46
2021/12/06 06:15:32;;;;;;;20.15;14.07;;;2.30;99.90;;;1.46;100.00;96855.09;5010311;28;20063;-45
2021/12/06 06:18:00;;;;;;;23.08;15.70;;;2.30;99.90;;;1.42;100.00;96852.53;5009841;28;20108;-46
2021/12/06 06:20:43;;;;;;;23.27;15.38;;;2.30;99.90;;;1.33;100.00;96854.34;5011679;28;20407;-48
2021/12/06 06:23:09;;;;;;;25.30;16.25;;;2.30;99.90;;;1.31;100.00;96861.31;5000985;28;20048;-46
2021/12/06 06:25:35;;;;;;;26.90;17.17;;;2.20;99.90;;;1.28;100.00;96863.91;5006214;28;20100;-47
2021/12/06 06:28:03;;;;;;;25.50;17.13;;;2.20;99.90;;;1.23;100.00;96868.28;5006329;28;20424;-44
2021/12/06 06:30:29;;;;;;;24.33;15.77;;;2.20;99.90;;;1.28;100.00;96863.91;5006273;28;20681;-42
2021/12/06 06:32:55;;;;;;;25.33;16.35;;;2.20;99.90;;;1.27;100.00;96872.56;5008359;28;20308;-41
2021/12/06 06:35:22;;;;;;;27.23;16.60;;;2.20;99.90;;;1.28;100.00;96871.72;5005167;28;20501;-46
2021/12/06 06:37:48;;;;;;;26.50;16.27;;;2.20;99.90;;;1.31;100.00;96873.41;5009133;28;20044;-47
2021/12/06 06:40:14;;;;;;;24.30;16.40;;;2.20;99.90;;;1.31;100.00;96876.00;5008329;28;20340;-46
2021/12/06 06:42:41;;;;;;;25.52;16.42;;;2.20;99.90;;;1.36;100.00;96886.38;5008104;28;20036;-45
2021/12/06 06:45:10;;;;;;;26.95;18.00;;;2.20;99.90;;;1.32;100.00;96883.78;5003138;28;20073;-46
2021/12/06 06:47:36;;;;;;;24.98;16.75;;;2.30;99.90;;;1.44;100.00;96895.81;5005588;28;20027;-48
2021/12/06 06:50:03;;;;;;;27.77;18.17;;;2.30;99.90;;;1.48;100.00;96900.09;5002849;28;20036;-47
2021/12/06 06:52:29;;;;;;;27.42;18.23;;;2.30;99.90;;;1.47;100.00;96902.72;5006839;28;20033;-45
2021/12/06 06:54:55;;;;;;;27.52;17.58;;;2.30;99.90;;;1.33;100.00;96906.31;5007021;28;20578;-46
2021/12/06 06:57:21;;;;;;;31.63;18.48;;;2.30;99.90;;;1.31;100.00;96913.25;5009096;28;20446;-45
2021/12/06 06:59:47;;;;;;;32.67;18.67;;;2.30;99.90;;;1.43;100.00;96916.63;5008689;28;20044;-46
2021/12/06 07:02:14;;;;;;;36.38;19.40;;;2.30;99.90;;;1.34;100.00;96927.94;5007866;28;20518;-45
2021/12/06 07:04:40;;;;;;;32.35;19.27;;;2.30;99.90;;;1.27;100.00;96921.94;5009506;28;20030;-43
2021/12/06 07:07:06;;;;;;;29.80;18.30;;;2.20;99.90;;;1.32;100.00;96929.69;5007151;28;20114;-46
2021/12/06 07:09:32;;;;;;;32.42;19.27;;;2.20;99.90;;;1.20;100.00;96925.44;5009718;28;20030;-45
2021/12/06 07:11:59;;;;;;;42.55;18.30;;;2.20;99.90;;;1.28;100.00;96935.81;5011763;28;20471;-47
2021/12/06 07:14:25;;;;;;;30.75;18.58;;;2.20;99.90;;;1.20;100.00;96925.44;5010982;28;20021;-47
2021/12/06 07:16:52;;;;;;;33.28;19.85;;;2.20;99.90;;;1.21;100.00;96937.56;5011472;28;20049;-43
2021/12/06 07:19:18;;;;;;;30.75;19.30;;;2.20;99.90;;;1.16;100.00;96936.75;5010559;28;20032;-46
2021/12/06 07:21:44;;;;;;;30.00;17.40;;;2.20;99.90;;;1.23;100.00;96935.81;5006784;28;20033;-46
2021/12/06 07:24:10;;;;;;;29.48;18.25;;;2.20;99.90;;;1.22;100.00;96939.31;5011639;28;20084;-45
2021/12/06 07:26:36;;;;;;;31.67;18.10;;;2.20;99.90;;;1.31;100.00;96953.94;5009669;28;20030;-46
2021/12/06 07:29:03;;;;;;;29.27;17.10;;;2.20;99.90;;;1.37;100.00;96951.31;5008923;28;20110;-45
2021/12/06 07:31:29;;;;;;;29.67;17.80;;;2.30;99.90;;;1.40;100.00;96955.63;5009200;28;20422;-47
2021/12/06 07:33:54;;;;;;;30.98;17.58;;;2.30;99.90;;;1.44;100.00;96959.94;5003782;28;20391;-48
2021/12/06 07:36:23;;;;;;;31.67;18.40;;;2.30;99.90;;;1.49;100.00;96952.94;5006105;28;20033;-46
2021/12/06 07:38:50;;;;;;;33.80;18.25;;;2.30;99.90;;;1.42;100.00;96964.25;5008453;28;20042;-48
2021/12/06 07:41:19;;;;;;;31.85;18.08;;;2.40;99.90;;;1.38;100.00;96965.16;5009104;28;20088;-46
2021/12/06 07:43:45;;;;;;;34.08;18.48;;;2.30;99.90;;;1.38;100.00;96962.56;5010603;28;20395;-47
2021/12/06 07:46:11;;;;;;;27.63;16.55;;;2.30;99.90;;;1.46;100.00;96966.84;5005309;28;21420;-47
2021/12/06 07:48:38;;;;;;;33.80;18.33;;;2.40;99.90;;;1.53;100.00;96975.44;5004036;28;20244;-39
2021/12/06 07:51:05;;;;;;;33.22;17.85;;;2.40;99.90;;;1.49;100.00;96978.94;5006429;28;20108;-43
2021/12/06 07:53:33;;;;;;;31.48;18.67;;;2.40;99.90;;;1.49;100.00;96978.94;5007090;28;20036;-44
2021/12/06 07:56:00;;;;;;;32.15;17.70;;;2.40;99.90;;;1.50;100.00;96981.50;5005401;28;20096;-45
2021/12/06 07:58:26;;;;;;;29.80;17.42;;;2.40;99.90;;;1.55;100.00;96975.44;5004130;28;20038;-46
2021/12/06 08:00:53;;;;;;;33.15;18.02;;;2.40;99.90;;;1.61;100.00;96981.44;4999336;28;20241;-44
2021/12/06 08:03:22;;;;;;;34.33;18.25;;;2.50;99.90;;;1.61;100.00;96988.38;5008959;28;20039;-44
2021/12/06 08:05:50;;;;;;;30.15;16.90;;;2.50;99.90;;;1.61;100.00;96978.81;5006315;28;20435;-47
2021/12/06 08:08:23;;;;;;;26.15;16.55;;;2.50;99.90;;;1.62;100.00;96980.56;5006211;28;20026;-46
2021/12/06 08:10:53;;;;;;;31.20;17.80;;;2.50;99.90;;;1.61;100.00;96984.03;5008722;28;20449;-46
2021/12/06 08:13:24;;;;;;;28.75;16.55;;;2.50;99.90;;;1.61;100.00;96989.22;5001545;28;20018;-42
2021/12/06 08:15:55;;;;;;;28.38;16.25;;;2.60;99.90;;;1.67;100.00;96983.09;5008065;28;20056;-47
2021/12/06 08:18:22;;;;;;;27.42;16.60;;;2.60;99.90;;;1.64;100.00;96984.00;5011274;28;20034;-48
2021/12/06 08:20:48;;;;;;;28.85;16.45;;;2.60;99.90;;;1.71;100.00;96988.28;5007141;28;20100;-45
2021/12/06 08:23:15;;;;;;;24.55;14.70;;;2.60;99.90;;;1.81;100.00;96985.59;5003401;28;20116;-45
2021/12/06 08:25:42;;;;;;;23.13;14.43;;;2.60;99.90;;;1.91;100.00;96992.44;5002786;28;20029;-47
2021/12/06 08:28:08;;;;;;;35.53;17.50;;;2.80;99.90;;;1.91;100.00;97002.84;5011589;28;20040;-46
2021/12/06 08:30:34;;;;;;;30.63;16.83;;;2.80;99.90;;;1.91;100.00;97002.84;5008565;28;20038;-45
2021/12/06 08:33:03;;;;;;;30.00;17.02;;;2.80;99.90;;;2.01;100.00;97006.22;5006882;28;20026;-46
2021/12/06 08:35:31;;;;;;;25.83;15.93;;;2.90;99.90;;;1.98;100.00;97004.53;5011681;28;20462;-44
2021/12/06 08:37:59;;;;;;;24.35;15.13;;;2.90;99.90;;;2.12;100.00;97014.81;5008967;28;20030;-46
2021/12/06 08:40:28;;;;;;;28.60;16.80;;;3.00;99.90;;;2.15;100.00;97009.56;5007037;28;20037;-45
2021/12/06 08:42:54;;;;;;;27.60;16.05;;;3.00;99.90;;;2.17;100.00;97015.63;5009155;28;20557;-47
2021/12/06 08:45:20;;;;;;;27.52;16.42;;;3.10;99.90;;;2.23;100.00;97019.91;5008581;28;20040;-46
2021/12/06 08:47:46;;;;;;;28.58;17.10;;;3.10;99.90;;;2.23;100.00;97020.75;5003704;28;20131;-45
2021/12/06 08:50:19;;;;;;;25.88;14.73;;;3.10;99.90;;;2.38;100.00;97026.69;5008188;28;20033;-46
2021/12/06 08:52:46;;;;;;;24.67;15.68;;;3.20;99.90;;;2.39;100.00;97021.47;5008085;28;20021;-48
2021/12/06 08:55:13;;;;;;;25.58;15.05;;;3.20;99.90;;;2.40;100.00;97022.31;5004034;28;20038;-41
2021/12/06 08:57:39;;;;;;;26.33;15.65;;;3.30;99.90;;;2.42;100.00;97024.03;5003453;28;20128;-45
2021/12/06 09:00:14;;;;;;;27.02;14.75;;;3.30;99.90;;;2.45;100.00;97020.53;5007382;28;20410;-46
2021/12/06 09:02:40;;;;;;;22.73;13.95;;;3.30;99.90;;;2.56;100.00;97028.22;5004395;28;20548;-45
2021/12/06 09:05:07;;;;;;;25.05;14.20;;;3.40;99.90;;;2.62;100.00;97025.53;4999890;28;20038;-47
2021/12/06 09:07:33;;;;;;;28.77;15.23;;;3.40;99.90;;;2.68;100.00;97018.53;5002134;28;20037;-45
2021/12/06 09:09:59;;;;;;;27.23;14.50;;;3.50;99.90;;;2.62;100.00;97018.59;5008313;28;20462;-44
2021/12/06 09:12:28;;;;;;;24.45;14.38;;;3.60;99.90;;;2.77;100.00;97030.56;5004944;28;20041;-45
2021/12/06 09:14:57;;;;;;;25.48;15.05;;;3.60;99.90;;;2.85;100.00;97025.25;5008132;28;20275;-46
2021/12/06 09:17:24;;;;;;;22.08;13.70;;;3.60;99.90;;;2.96;100.00;97039.03;4996754;28;20112;-43
2021/12/06 09:19:51;;;;;;;25.90;13.57;;;3.70;99.90;;;2.99;100.00;97033.78;5003941;28;20041;-44
2021/12/06 09:22:19;;;;;;;21.33;13.40;;;3.80;99.90;;;3.02;100.00;97038.94;5007997;28;20115;-45
2021/12/06 09:24:45;;;;;;;20.30;12.95;;;3.90;99.90;;;3.16;100.00;97041.38;5005702;28;20040;-46
2021/12/06 09:27:12;;;;;;;22.45;12.93;;;3.90;99.90;;;3.12;100.00;97047.50;5006481;28;20030;-49
2021/12/06 09:29:39;;;;;;;19.90;12.50;;;4.00;99.90;;;3.16;100.00;97036.16;5005449;28;20076;-46
2021/12/06 09:32:08;;;;;;;21.23;12.40;;;4.00;99.90;;;3.19;100.00;97050.88;5005878;28;20226;-46
2021/12/06 09:34:38;;;;;;;17.48;11.45;;;4.10;99.90;;;3.32;100.00;97054.19;5005012;28;20559;-45
2021/12/06 09:37:05;;;;;;;20.35;12.32;;;4.10;99.90;;;3.29;100.00;97051.66;5003966;28;20038;-45
2021/12/06 09:39:32;;;;;;;17.23;11.40;;;4.10;99.90;;;3.43;100.00;97055.78;5008299;28;20079;-46
2021/12/06 09:41:58;;;;;;;19.90;12.00;;;4.20;99.90;;;3.46;100.00;97046.19;5003409;28;20038;-43
2021/12/06 09:44:24;;;;;;;22.55;12.20;;;4.30;99.90;;;3.48;100.00;97044.41;5001227;28;20092;-46
2021/12/06 09:46:51;;;;;;;23.48;12.55;;;4.30;99.90;;;3.51;100.00;97053.06;5005745;28;20551;-45
2021/12/06 09:49:22;;;;;;;21.83;12.38;;;4.30;99.90;;;3.51;100.00;97053.06;5006064;28;20289;-45
2021/12/06 09:51:54;;;;;;;23.58;13.10;;;4.30;99.90;;;3.48;100.00;97063.50;5003781;28;20037;-46
2021/12/06 09:54:25;;;;;;;20.65;12.30;;;4.40;99.90;;;3.58;100.00;97064.25;5006599;28;20317;-45
2021/12/06 09:56:53;;;;;;;21.92;11.15;;;4.40;99.90;;;3.77;100.00;97062.25;5005214;28;20088;-45
2021/12/06 09:59:24;;;;;;;23.00;11.07;;;4.50;99.90;;;3.91;100.00;97060.28;5006004;28;20077;-44
2021/12/06 10:02:02;;;;;;;17.63;11.23;;;4.60;99.90;;;4.10;100.00;97058.22;5006555;28;20042;-47
2021/12/06 10:04:33;;;;;;;24.40;11.40;;;4.80;99.90;;;4.16;100.00;97057.25;5007470;28;20033;-46
2021/12/06 10:06:59;;;;;;;21.20;11.63;;;4.90;99.90;;;4.08;100.00;97059.16;5008225;28;20038;-41
2021/12/06 10:09:26;;;;;;;20.63;11.80;;;4.90;99.90;;;4.22;100.00;97054.56;5011036;28;20157;-47
2021/12/06 10:11:55;;;;;;;18.95;11.55;;;5.00;99.90;;;4.33;100.00;97051.75;5006336;28;20100;-47
2021/12/06 10:14:21;;;;;;;21.58;12.52;;;5.10;99.90;;;4.29;100.00;97050.94;5009656;28;20515;-46
2021/12/06 10:16:47;;;;;;;23.55;11.07;;;5.10;99.90;;;4.13;100.00;97041.66;5008132;28;20029;-40
2021/12/06 10:19:15;;;;;;;20.80;11.60;;;5.00;99.90;;;4.20;100.00;97040.69;5007811;28;20085;-45
2021/12/06 10:21:41;;;;;;;15.63;11.02;;;5.00;99.90;;;4.32;100.00;97040.44;5011380;28;20067;-45
2021/12/06 10:24:15;;;;;;;18.75;11.48;;;5.10;99.90;;;4.57;100.00;97032.16;5011388;28;20072;-46
2021/12/06 10:26:41;;;;;;;18.65;11.07;;;5.20;99.90;;;4.44;100.00;97033.28;5009058;28;20045;-45
2021/12/06 10:29:22;;;;;;;19.00;11.05;;;5.30;99.90;;;4.40;100.00;97020.28;5007527;28;20084;-45
2021/12/06 10:31:53;;;;;;;18.88;11.95;;;5.10;99.90;;;4.12;100.00;97008.63;5006584;28;20086;-42
2021/12/06 10:34:27;;;;;;;18.88;10.63;;;5.00;99.90;;;4.00;100.00;97012.28;5009398;28;20030;-44